sensor_id;sensor_type;location;lat;lon;timestamp;temperature;humidity
18126;DHT22;53956;52.442;13.284;2023-06-04T00:01:58;18.50;43.80
18126;DHT22;53956;52.442;13.284;2023-06-04T00:04:25;18.20;43.50
18126;DHT22;53956;52.442;13.284;2023-06-04T00:06:53;18.30;44.30
18126;DHT22;53956;52.442;13.284;2023-06-04T00:09:21;18.40;44.60
18126;DHT22;53956;52.442;13.284;2023-06-04T00:11:48;18.30;44.40
18126;DHT22;53956;52.442;13.284;2023-06-04T00:14:15;18.30;45.20
18126;DHT22;53956;52.442;13.284;2023-06-04T00:16:42;18.20;45.00
18126;DHT22;53956;52.442;13.284;2023-06-04T00:19:08;18.10;46.40
18126;DHT22;53956;52.442;13.284;2023-06-04T00:21:35;18.20;45.60
18126;DHT22;53956;52.442;13.284;2023-06-04T00:24:02;18.20;45.70
18126;DHT22;53956;52.442;13.284;2023-06-04T00:26:30;18.20;45.80
18126;DHT22;53956;52.442;13.284;2023-06-04T00:28:57;18.10;46.60
18126;DHT22;53956;52.442;13.284;2023-06-04T00:31:23;18.20;45.40
18126;DHT22;53956;52.442;13.284;2023-06-04T00:33:50;18.10;46.70
18126;DHT22;53956;52.442;13.284;2023-06-04T00:36:17;18.20;45.90
18126;DHT22;53956;52.442;13.284;2023-06-04T00:38:43;18.10;46.60
18126;DHT22;53956;52.442;13.284;2023-06-04T00:41:10;18.00;47.20
18126;DHT22;53956;52.442;13.284;2023-06-04T00:43:38;18.10;47.00
18126;DHT22;53956;52.442;13.284;2023-06-04T00:46:06;18.10;46.70
18126;DHT22;53956;52.442;13.284;2023-06-04T00:48:33;18.00;47.30
18126;DHT22;53956;52.442;13.284;2023-06-04T00:51:02;18.00;47.10
18126;DHT22;53956;52.442;13.284;2023-06-04T00:53:30;17.90;47.70
18126;DHT22;53956;52.442;13.284;2023-06-04T00:55:56;17.70;47.10
18126;DHT22;53956;52.442;13.284;2023-06-04T00:58:23;17.60;47.40
18126;DHT22;53956;52.442;13.284;2023-06-04T01:00:54;17.60;47.90
18126;DHT22;53956;52.442;13.284;2023-06-04T01:03:25;17.60;47.90
18126;DHT22;53956;52.442;13.284;2023-06-04T01:05:59;17.60;47.80
18126;DHT22;53956;52.442;13.284;2023-06-04T01:08:27;17.60;48.40
18126;DHT22;53956;52.442;13.284;2023-06-04T01:10:55;17.60;48.40
18126;DHT22;53956;52.442;13.284;2023-06-04T01:13:22;17.50;48.20
18126;DHT22;53956;52.442;13.284;2023-06-04T01:15:49;17.50;48.30
18126;DHT22;53956;52.442;13.284;2023-06-04T01:18:21;17.50;48.20
18126;DHT22;53956;52.442;13.284;2023-06-04T01:20:58;17.50;48.20
18126;DHT22;53956;52.442;13.284;2023-06-04T01:23:28;17.30;48.60
18126;DHT22;53956;52.442;13.284;2023-06-04T01:26:00;17.20;48.90
18126;DHT22;53956;52.442;13.284;2023-06-04T01:28:29;17.30;49.00
18126;DHT22;53956;52.442;13.284;2023-06-04T01:30:56;17.40;48.90
18126;DHT22;53956;52.442;13.284;2023-06-04T01:33:28;17.40;49.50
18126;DHT22;53956;52.442;13.284;2023-06-04T01:35:54;17.40;49.60
18126;DHT22;53956;52.442;13.284;2023-06-04T01:38:21;17.40;49.90
18126;DHT22;53956;52.442;13.284;2023-06-04T01:40:48;17.30;50.00
18126;DHT22;53956;52.442;13.284;2023-06-04T01:43:16;17.40;50.10
18126;DHT22;53956;52.442;13.284;2023-06-04T01:45:42;17.40;50.10
18126;DHT22;53956;52.442;13.284;2023-06-04T01:48:09;17.20;50.70
18126;DHT22;53956;52.442;13.284;2023-06-04T01:50:37;17.10;50.70
18126;DHT22;53956;52.442;13.284;2023-06-04T01:53:04;17.20;50.80
18126;DHT22;53956;52.442;13.284;2023-06-04T01:55:31;17.10;50.90
18126;DHT22;53956;52.442;13.284;2023-06-04T01:57:59;17.10;51.20
18126;DHT22;53956;52.442;13.284;2023-06-04T02:00:26;17.10;50.90
18126;DHT22;53956;52.442;13.284;2023-06-04T02:02:53;17.00;51.60
18126;DHT22;53956;52.442;13.284;2023-06-04T02:05:21;17.10;51.70
18126;DHT22;53956;52.442;13.284;2023-06-04T02:07:49;17.10;51.80
18126;DHT22;53956;52.442;13.284;2023-06-04T02:10:18;17.10;52.00
18126;DHT22;53956;52.442;13.284;2023-06-04T02:12:54;17.10;51.90
18126;DHT22;53956;52.442;13.284;2023-06-04T02:15:23;16.90;52.10
18126;DHT22;53956;52.442;13.284;2023-06-04T02:17:49;17.00;52.20
18126;DHT22;53956;52.442;13.284;2023-06-04T02:20:17;17.00;52.80
18126;DHT22;53956;52.442;13.284;2023-06-04T02:22:44;16.90;52.70
18126;DHT22;53956;52.442;13.284;2023-06-04T02:25:12;16.90;53.10
18126;DHT22;53956;52.442;13.284;2023-06-04T02:27:39;16.80;52.90
18126;DHT22;53956;52.442;13.284;2023-06-04T02:30:06;16.70;53.40
18126;DHT22;53956;52.442;13.284;2023-06-04T02:32:33;16.70;53.60
18126;DHT22;53956;52.442;13.284;2023-06-04T02:35:02;16.70;53.90
18126;DHT22;53956;52.442;13.284;2023-06-04T02:37:29;16.70;53.80
18126;DHT22;53956;52.442;13.284;2023-06-04T02:39:56;16.70;54.60
18126;DHT22;53956;52.442;13.284;2023-06-04T02:42:24;16.50;54.60
18126;DHT22;53956;52.442;13.284;2023-06-04T02:44:51;16.50;55.20
18126;DHT22;53956;52.442;13.284;2023-06-04T02:47:18;16.40;55.40
18126;DHT22;53956;52.442;13.284;2023-06-04T02:49:45;16.50;55.90
18126;DHT22;53956;52.442;13.284;2023-06-04T02:52:12;16.50;55.80
18126;DHT22;53956;52.442;13.284;2023-06-04T02:54:38;16.50;55.80
18126;DHT22;53956;52.442;13.284;2023-06-04T02:57:06;16.40;56.30
18126;DHT22;53956;52.442;13.284;2023-06-04T02:59:35;16.60;56.30
18126;DHT22;53956;52.442;13.284;2023-06-04T03:02:04;16.40;56.60
18126;DHT22;53956;52.442;13.284;2023-06-04T03:04:31;16.40;56.50
18126;DHT22;53956;52.442;13.284;2023-06-04T03:07:00;16.40;56.60
18126;DHT22;53956;52.442;13.284;2023-06-04T03:09:27;16.20;57.70
18126;DHT22;53956;52.442;13.284;2023-06-04T03:11:54;16.20;58.40
18126;DHT22;53956;52.442;13.284;2023-06-04T03:14:21;16.10;58.60
18126;DHT22;53956;52.442;13.284;2023-06-04T03:16:50;16.10;59.20
18126;DHT22;53956;52.442;13.284;2023-06-04T03:19:17;16.20;58.90
18126;DHT22;53956;52.442;13.284;2023-06-04T03:21:44;16.20;59.50
18126;DHT22;53956;52.442;13.284;2023-06-04T03:24:12;16.30;60.40
18126;DHT22;53956;52.442;13.284;2023-06-04T03:26:39;16.50;60.40
18126;DHT22;53956;52.442;13.284;2023-06-04T03:29:06;16.50;59.50
18126;DHT22;53956;52.442;13.284;2023-06-04T03:31:33;16.60;59.20
18126;DHT22;53956;52.442;13.284;2023-06-04T03:34:01;16.50;59.30
18126;DHT22;53956;52.442;13.284;2023-06-04T03:36:30;16.50;59.40
18126;DHT22;53956;52.442;13.284;2023-06-04T03:38:58;16.50;59.40
18126;DHT22;53956;52.442;13.284;2023-06-04T03:41:25;16.50;59.30
18126;DHT22;53956;52.442;13.284;2023-06-04T03:43:53;16.50;59.80
18126;DHT22;53956;52.442;13.284;2023-06-04T03:46:20;16.60;60.60
18126;DHT22;53956;52.442;13.284;2023-06-04T03:48:47;16.50;60.20
18126;DHT22;53956;52.442;13.284;2023-06-04T03:51:16;16.60;60.80
18126;DHT22;53956;52.442;13.284;2023-06-04T03:53:44;16.60;60.80
18126;DHT22;53956;52.442;13.284;2023-06-04T03:56:11;16.70;61.20
18126;DHT22;53956;52.442;13.284;2023-06-04T03:58:38;16.80;60.80
18126;DHT22;53956;52.442;13.284;2023-06-04T04:01:05;16.90;60.80
18126;DHT22;53956;52.442;13.284;2023-06-04T04:03:36;17.00;60.50
18126;DHT22;53956;52.442;13.284;2023-06-04T04:06:04;16.90;60.50
18126;DHT22;53956;52.442;13.284;2023-06-04T04:08:32;16.80;59.90
18126;DHT22;53956;52.442;13.284;2023-06-04T04:11:00;16.90;60.30
18126;DHT22;53956;52.442;13.284;2023-06-04T04:13:27;16.70;58.90
18126;DHT22;53956;52.442;13.284;2023-06-04T04:15:54;16.80;59.30
18126;DHT22;53956;52.442;13.284;2023-06-04T04:18:22;16.80;59.50
18126;DHT22;53956;52.442;13.284;2023-06-04T04:20:49;16.90;59.20
18126;DHT22;53956;52.442;13.284;2023-06-04T04:23:16;16.80;58.90
18126;DHT22;53956;52.442;13.284;2023-06-04T04:25:46;16.90;58.80
18126;DHT22;53956;52.442;13.284;2023-06-04T04:28:13;16.80;58.60
18126;DHT22;53956;52.442;13.284;2023-06-04T04:30:40;16.90;57.70
18126;DHT22;53956;52.442;13.284;2023-06-04T04:33:08;17.10;59.10
18126;DHT22;53956;52.442;13.284;2023-06-04T04:35:41;17.20;58.50
18126;DHT22;53956;52.442;13.284;2023-06-04T04:38:09;17.20;57.50
18126;DHT22;53956;52.442;13.284;2023-06-04T04:40:42;17.20;57.60
18126;DHT22;53956;52.442;13.284;2023-06-04T04:43:13;17.30;56.80
18126;DHT22;53956;52.442;13.284;2023-06-04T04:45:41;17.50;56.10
18126;DHT22;53956;52.442;13.284;2023-06-04T04:48:09;17.90;56.10
18126;DHT22;53956;52.442;13.284;2023-06-04T04:50:36;18.70;53.20
18126;DHT22;53956;52.442;13.284;2023-06-04T04:53:04;19.40;50.80
18126;DHT22;53956;52.442;13.284;2023-06-04T04:55:32;20.00;50.30
18126;DHT22;53956;52.442;13.284;2023-06-04T04:57:59;20.70;49.20
18126;DHT22;53956;52.442;13.284;2023-06-04T05:00:29;21.20;47.30
18126;DHT22;53956;52.442;13.284;2023-06-04T05:02:56;21.60;46.60
18126;DHT22;53956;52.442;13.284;2023-06-04T05:05:23;22.00;46.10
18126;DHT22;53956;52.442;13.284;2023-06-04T05:07:51;22.60;45.60
18126;DHT22;53956;52.442;13.284;2023-06-04T05:10:20;22.70;44.40
18126;DHT22;53956;52.442;13.284;2023-06-04T05:12:51;23.30;43.70
18126;DHT22;53956;52.442;13.284;2023-06-04T05:15:19;23.30;42.80
18126;DHT22;53956;52.442;13.284;2023-06-04T05:17:48;23.70;42.00
18126;DHT22;53956;52.442;13.284;2023-06-04T05:20:18;24.10;41.60
18126;DHT22;53956;52.442;13.284;2023-06-04T05:22:46;24.50;40.10
18126;DHT22;53956;52.442;13.284;2023-06-04T05:25:16;24.60;40.20
18126;DHT22;53956;52.442;13.284;2023-06-04T05:27:43;24.70;39.60
18126;DHT22;53956;52.442;13.284;2023-06-04T05:30:12;24.80;40.00
18126;DHT22;53956;52.442;13.284;2023-06-04T05:32:39;25.10;39.90
18126;DHT22;53956;52.442;13.284;2023-06-04T05:35:09;25.50;38.60
18126;DHT22;53956;52.442;13.284;2023-06-04T05:37:39;25.70;39.70
18126;DHT22;53956;52.442;13.284;2023-06-04T05:40:08;25.60;38.50
18126;DHT22;53956;52.442;13.284;2023-06-04T05:42:37;25.90;38.60
18126;DHT22;53956;52.442;13.284;2023-06-04T05:45:05;25.90;38.60
18126;DHT22;53956;52.442;13.284;2023-06-04T05:47:34;26.10;40.80
18126;DHT22;53956;52.442;13.284;2023-06-04T05:50:01;26.50;41.00
18126;DHT22;53956;52.442;13.284;2023-06-04T05:52:31;26.70;37.30
18126;DHT22;53956;52.442;13.284;2023-06-04T05:54:58;26.60;38.00
18126;DHT22;53956;52.442;13.284;2023-06-04T05:57:25;27.10;37.30
18126;DHT22;53956;52.442;13.284;2023-06-04T05:59:52;27.40;37.90
18126;DHT22;53956;52.442;13.284;2023-06-04T06:02:19;27.50;36.10
18126;DHT22;53956;52.442;13.284;2023-06-04T06:04:46;27.50;36.20
18126;DHT22;53956;52.442;13.284;2023-06-04T06:07:13;27.90;35.90
18126;DHT22;53956;52.442;13.284;2023-06-04T06:09:41;28.10;35.80
18126;DHT22;53956;52.442;13.284;2023-06-04T06:12:08;28.20;36.60
18126;DHT22;53956;52.442;13.284;2023-06-04T06:14:37;28.60;34.50
18126;DHT22;53956;52.442;13.284;2023-06-04T06:17:04;28.60;34.70
18126;DHT22;53956;52.442;13.284;2023-06-04T06:19:32;28.90;34.90
18126;DHT22;53956;52.442;13.284;2023-06-04T06:21:59;29.00;35.10
18126;DHT22;53956;52.442;13.284;2023-06-04T06:24:28;29.10;34.00
18126;DHT22;53956;52.442;13.284;2023-06-04T06:26:56;29.20;33.20
18126;DHT22;53956;52.442;13.284;2023-06-04T06:29:23;29.30;33.70
18126;DHT22;53956;52.442;13.284;2023-06-04T06:31:51;29.40;33.40
18126;DHT22;53956;52.442;13.284;2023-06-04T06:34:18;29.10;31.60
18126;DHT22;53956;52.442;13.284;2023-06-04T06:36:44;28.60;31.70
18126;DHT22;53956;52.442;13.284;2023-06-04T06:39:12;28.20;32.40
18126;DHT22;53956;52.442;13.284;2023-06-04T06:41:39;28.40;33.10
18126;DHT22;53956;52.442;13.284;2023-06-04T06:44:10;28.60;34.10
18126;DHT22;53956;52.442;13.284;2023-06-04T06:46:37;28.60;33.30
18126;DHT22;53956;52.442;13.284;2023-06-04T06:49:04;28.60;32.70
18126;DHT22;53956;52.442;13.284;2023-06-04T06:51:31;28.20;31.90
18126;DHT22;53956;52.442;13.284;2023-06-04T06:53:57;28.20;33.70
18126;DHT22;53956;52.442;13.284;2023-06-04T06:56:24;27.50;33.30
18126;DHT22;53956;52.442;13.284;2023-06-04T06:58:52;27.60;33.00
18126;DHT22;53956;52.442;13.284;2023-06-04T07:01:20;28.00;33.10
18126;DHT22;53956;52.442;13.284;2023-06-04T07:03:48;27.90;32.40
18126;DHT22;53956;52.442;13.284;2023-06-04T07:06:16;28.10;32.30
18126;DHT22;53956;52.442;13.284;2023-06-04T07:08:43;27.60;31.40
18126;DHT22;53956;52.442;13.284;2023-06-04T07:11:10;27.00;32.30
18126;DHT22;53956;52.442;13.284;2023-06-04T07:13:37;27.00;31.70
18126;DHT22;53956;52.442;13.284;2023-06-04T07:16:04;27.10;32.60
18126;DHT22;53956;52.442;13.284;2023-06-04T07:18:33;27.70;31.60
18126;DHT22;53956;52.442;13.284;2023-06-04T07:20:59;27.80;31.90
18126;DHT22;53956;52.442;13.284;2023-06-04T07:23:26;27.90;31.90
18126;DHT22;53956;52.442;13.284;2023-06-04T07:25:53;27.80;32.30
18126;DHT22;53956;52.442;13.284;2023-06-04T07:28:20;27.20;30.20
18126;DHT22;53956;52.442;13.284;2023-06-04T07:30:46;27.40;31.90
18126;DHT22;53956;52.442;13.284;2023-06-04T07:33:13;27.70;31.80
18126;DHT22;53956;52.442;13.284;2023-06-04T07:35:41;27.80;31.60
18126;DHT22;53956;52.442;13.284;2023-06-04T07:38:08;27.80;32.20
18126;DHT22;53956;52.442;13.284;2023-06-04T07:40:34;27.90;31.60
18126;DHT22;53956;52.442;13.284;2023-06-04T07:43:01;27.80;31.20
18126;DHT22;53956;52.442;13.284;2023-06-04T07:45:28;27.60;31.10
18126;DHT22;53956;52.442;13.284;2023-06-04T07:47:56;26.30;31.60
18126;DHT22;53956;52.442;13.284;2023-06-04T07:50:22;26.90;32.50
18126;DHT22;53956;52.442;13.284;2023-06-04T07:52:50;26.80;32.40
18126;DHT22;53956;52.442;13.284;2023-06-04T07:55:17;26.50;31.50
18126;DHT22;53956;52.442;13.284;2023-06-04T07:57:44;26.40;31.70
18126;DHT22;53956;52.442;13.284;2023-06-04T08:00:11;26.50;30.50
18126;DHT22;53956;52.442;13.284;2023-06-04T08:02:39;25.40;32.30
18126;DHT22;53956;52.442;13.284;2023-06-04T08:05:06;25.80;33.00
18126;DHT22;53956;52.442;13.284;2023-06-04T08:07:33;26.10;32.60
18126;DHT22;53956;52.442;13.284;2023-06-04T08:10:02;26.30;33.30
18126;DHT22;53956;52.442;13.284;2023-06-04T08:12:28;26.30;33.60
18126;DHT22;53956;52.442;13.284;2023-06-04T08:14:55;26.30;33.30
18126;DHT22;53956;52.442;13.284;2023-06-04T08:17:23;26.30;32.20
18126;DHT22;53956;52.442;13.284;2023-06-04T08:19:49;26.30;33.70
18126;DHT22;53956;52.442;13.284;2023-06-04T08:22:16;26.60;33.30
18126;DHT22;53956;52.442;13.284;2023-06-04T08:24:43;26.50;30.70
18126;DHT22;53956;52.442;13.284;2023-06-04T08:27:11;25.90;33.40
18126;DHT22;53956;52.442;13.284;2023-06-04T08:29:38;26.30;35.10
18126;DHT22;53956;52.442;13.284;2023-06-04T08:32:05;26.20;31.70
18126;DHT22;53956;52.442;13.284;2023-06-04T08:34:33;25.90;34.50
18126;DHT22;53956;52.442;13.284;2023-06-04T08:36:59;25.10;32.30
18126;DHT22;53956;52.442;13.284;2023-06-04T08:39:26;25.10;32.60
18126;DHT22;53956;52.442;13.284;2023-06-04T08:41:56;24.90;31.60
18126;DHT22;53956;52.442;13.284;2023-06-04T08:44:27;24.80;31.50
18126;DHT22;53956;52.442;13.284;2023-06-04T08:46:54;24.80;32.50
18126;DHT22;53956;52.442;13.284;2023-06-04T08:49:25;25.40;33.00
18126;DHT22;53956;52.442;13.284;2023-06-04T08:51:52;25.80;33.90
18126;DHT22;53956;52.442;13.284;2023-06-04T08:54:19;26.10;32.70
18126;DHT22;53956;52.442;13.284;2023-06-04T08:56:45;25.90;33.30
18126;DHT22;53956;52.442;13.284;2023-06-04T08:59:12;26.00;32.80
18126;DHT22;53956;52.442;13.284;2023-06-04T09:01:43;25.90;32.00
18126;DHT22;53956;52.442;13.284;2023-06-04T09:04:11;25.40;31.10
18126;DHT22;53956;52.442;13.284;2023-06-04T09:06:38;25.60;32.10
18126;DHT22;53956;52.442;13.284;2023-06-04T09:09:08;25.50;31.40
18126;DHT22;53956;52.442;13.284;2023-06-04T09:11:38;25.30;32.50
18126;DHT22;53956;52.442;13.284;2023-06-04T09:14:07;25.70;32.60
18126;DHT22;53956;52.442;13.284;2023-06-04T09:16:43;25.80;32.70
18126;DHT22;53956;52.442;13.284;2023-06-04T09:19:10;25.60;31.70
18126;DHT22;53956;52.442;13.284;2023-06-04T09:21:49;25.40;31.60
18126;DHT22;53956;52.442;13.284;2023-06-04T09:24:16;25.50;32.50
18126;DHT22;53956;52.442;13.284;2023-06-04T09:26:43;25.70;32.60
18126;DHT22;53956;52.442;13.284;2023-06-04T09:29:10;25.80;31.80
18126;DHT22;53956;52.442;13.284;2023-06-04T09:31:37;26.00;33.10
18126;DHT22;53956;52.442;13.284;2023-06-04T09:34:06;25.30;31.00
18126;DHT22;53956;52.442;13.284;2023-06-04T09:36:34;25.80;33.50
18126;DHT22;53956;52.442;13.284;2023-06-04T09:39:02;25.80;33.40
18126;DHT22;53956;52.442;13.284;2023-06-04T09:41:29;25.90;32.40
18126;DHT22;53956;52.442;13.284;2023-06-04T09:44:02;25.90;31.90
18126;DHT22;53956;52.442;13.284;2023-06-04T09:46:31;25.30;30.90
18126;DHT22;53956;52.442;13.284;2023-06-04T09:49:02;25.70;32.30
18126;DHT22;53956;52.442;13.284;2023-06-04T09:51:31;26.00;33.50
18126;DHT22;53956;52.442;13.284;2023-06-04T09:54:00;26.20;32.90
18126;DHT22;53956;52.442;13.284;2023-06-04T09:56:27;25.70;30.60
18126;DHT22;53956;52.442;13.284;2023-06-04T09:58:55;25.50;31.50
18126;DHT22;53956;52.442;13.284;2023-06-04T10:01:23;25.70;32.10
18126;DHT22;53956;52.442;13.284;2023-06-04T10:03:51;26.00;32.50
18126;DHT22;53956;52.442;13.284;2023-06-04T10:06:19;26.10;31.70
18126;DHT22;53956;52.442;13.284;2023-06-04T10:08:48;26.00;31.50
18126;DHT22;53956;52.442;13.284;2023-06-04T10:11:17;25.50;29.60
18126;DHT22;53956;52.442;13.284;2023-06-04T10:13:48;25.50;32.80
18126;DHT22;53956;52.442;13.284;2023-06-04T10:16:17;25.50;31.90
18126;DHT22;53956;52.442;13.284;2023-06-04T10:18:47;25.40;30.80
18126;DHT22;53956;52.442;13.284;2023-06-04T10:21:15;25.20;31.60
18126;DHT22;53956;52.442;13.284;2023-06-04T10:23:44;25.20;29.70
18126;DHT22;53956;52.442;13.284;2023-06-04T10:26:14;24.50;31.20
18126;DHT22;53956;52.442;13.284;2023-06-04T10:28:42;24.90;32.50
18126;DHT22;53956;52.442;13.284;2023-06-04T10:31:09;24.90;30.70
18126;DHT22;53956;52.442;13.284;2023-06-04T10:33:36;24.70;31.60
18126;DHT22;53956;52.442;13.284;2023-06-04T10:36:16;25.20;32.00
18126;DHT22;53956;52.442;13.284;2023-06-04T10:38:45;24.90;29.60
18126;DHT22;53956;52.442;13.284;2023-06-04T10:41:15;24.90;31.80
18126;DHT22;53956;52.442;13.284;2023-06-04T10:43:42;24.80;31.50
18126;DHT22;53956;52.442;13.284;2023-06-04T10:46:13;24.90;31.20
18126;DHT22;53956;52.442;13.284;2023-06-04T10:48:49;24.90;31.70
18126;DHT22;53956;52.442;13.284;2023-06-04T10:51:28;25.10;30.10
18126;DHT22;53956;52.442;13.284;2023-06-04T10:53:55;25.10;30.20
18126;DHT22;53956;52.442;13.284;2023-06-04T10:56:26;24.50;29.30
18126;DHT22;53956;52.442;13.284;2023-06-04T10:58:52;24.30;29.60
18126;DHT22;53956;52.442;13.284;2023-06-04T11:01:23;24.50;30.70
18126;DHT22;53956;52.442;13.284;2023-06-04T11:03:50;24.90;31.10
18126;DHT22;53956;52.442;13.284;2023-06-04T11:06:17;24.80;30.20
18126;DHT22;53956;52.442;13.284;2023-06-04T11:08:44;24.60;29.90
18126;DHT22;53956;52.442;13.284;2023-06-04T11:11:11;24.60;29.50
18126;DHT22;53956;52.442;13.284;2023-06-04T11:13:40;24.80;31.30
18126;DHT22;53956;52.442;13.284;2023-06-04T11:16:16;24.90;31.10
18126;DHT22;53956;52.442;13.284;2023-06-04T11:18:43;24.70;30.20
18126;DHT22;53956;52.442;13.284;2023-06-04T11:21:11;24.70;30.30
18126;DHT22;53956;52.442;13.284;2023-06-04T11:23:40;24.60;30.40
18126;DHT22;53956;52.442;13.284;2023-06-04T11:26:06;24.70;30.80
18126;DHT22;53956;52.442;13.284;2023-06-04T11:28:33;24.60;31.00
18126;DHT22;53956;52.442;13.284;2023-06-04T11:31:02;24.80;31.80
18126;DHT22;53956;52.442;13.284;2023-06-04T11:33:41;24.80;31.60
18126;DHT22;53956;52.442;13.284;2023-06-04T11:36:07;24.90;31.70
18126;DHT22;53956;52.442;13.284;2023-06-04T11:38:34;24.90;31.80
18126;DHT22;53956;52.442;13.284;2023-06-04T11:41:02;24.90;31.50
18126;DHT22;53956;52.442;13.284;2023-06-04T11:43:32;24.50;30.50
18126;DHT22;53956;52.442;13.284;2023-06-04T11:45:58;24.70;32.60
18126;DHT22;53956;52.442;13.284;2023-06-04T11:48:27;24.50;30.80
18126;DHT22;53956;52.442;13.284;2023-06-04T11:50:55;24.80;32.70
18126;DHT22;53956;52.442;13.284;2023-06-04T11:53:22;24.80;30.90
18126;DHT22;53956;52.442;13.284;2023-06-04T11:55:49;24.90;31.10
18126;DHT22;53956;52.442;13.284;2023-06-04T11:58:16;24.70;31.60
18126;DHT22;53956;52.442;13.284;2023-06-04T12:00:43;24.70;31.30
18126;DHT22;53956;52.442;13.284;2023-06-04T12:03:09;24.80;31.60
18126;DHT22;53956;52.442;13.284;2023-06-04T12:05:37;24.60;31.20
18126;DHT22;53956;52.442;13.284;2023-06-04T12:08:05;24.90;32.90
18126;DHT22;53956;52.442;13.284;2023-06-04T12:10:37;24.90;32.10
18126;DHT22;53956;52.442;13.284;2023-06-04T12:13:04;24.90;29.80
18126;DHT22;53956;52.442;13.284;2023-06-04T12:15:31;24.90;33.10
18126;DHT22;53956;52.442;13.284;2023-06-04T12:17:58;24.80;30.40
18126;DHT22;53956;52.442;13.284;2023-06-04T12:20:32;24.70;33.10
18126;DHT22;53956;52.442;13.284;2023-06-04T12:23:01;24.90;32.00
18126;DHT22;53956;52.442;13.284;2023-06-04T12:25:28;25.00;32.50
18126;DHT22;53956;52.442;13.284;2023-06-04T12:27:55;25.10;33.20
18126;DHT22;53956;52.442;13.284;2023-06-04T12:30:22;25.30;33.10
18126;DHT22;53956;52.442;13.284;2023-06-04T12:32:49;25.20;32.60
18126;DHT22;53956;52.442;13.284;2023-06-04T12:35:17;25.30;33.20
18126;DHT22;53956;52.442;13.284;2023-06-04T12:37:43;25.30;33.20
18126;DHT22;53956;52.442;13.284;2023-06-04T12:40:11;25.30;33.50
18126;DHT22;53956;52.442;13.284;2023-06-04T12:42:38;25.40;33.40
18126;DHT22;53956;52.442;13.284;2023-06-04T12:45:06;25.10;32.30
18126;DHT22;53956;52.442;13.284;2023-06-04T12:47:33;25.00;30.90
18126;DHT22;53956;52.442;13.284;2023-06-04T12:50:00;24.80;30.20
18126;DHT22;53956;52.442;13.284;2023-06-04T12:52:26;25.00;32.10
18126;DHT22;53956;52.442;13.284;2023-06-04T12:54:53;25.00;31.90
18126;DHT22;53956;52.442;13.284;2023-06-04T12:57:21;25.00;31.20
18126;DHT22;53956;52.442;13.284;2023-06-04T12:59:48;24.70;29.90
18126;DHT22;53956;52.442;13.284;2023-06-04T13:02:14;24.80;32.60
18126;DHT22;53956;52.442;13.284;2023-06-04T13:04:41;24.70;31.40
18126;DHT22;53956;52.442;13.284;2023-06-04T13:07:09;24.70;30.50
18126;DHT22;53956;52.442;13.284;2023-06-04T13:09:36;24.80;31.80
18126;DHT22;53956;52.442;13.284;2023-06-04T13:12:03;24.90;31.20
18126;DHT22;53956;52.442;13.284;2023-06-04T13:14:32;25.00;31.70
18126;DHT22;53956;52.442;13.284;2023-06-04T13:16:59;25.00;31.30
18126;DHT22;53956;52.442;13.284;2023-06-04T13:19:26;24.90;30.00
18126;DHT22;53956;52.442;13.284;2023-06-04T13:21:53;24.80;30.40
18126;DHT22;53956;52.442;13.284;2023-06-04T13:24:19;24.90;31.00
18126;DHT22;53956;52.442;13.284;2023-06-04T13:26:46;25.10;31.30
18126;DHT22;53956;52.442;13.284;2023-06-04T13:29:13;24.90;30.60
18126;DHT22;53956;52.442;13.284;2023-06-04T13:31:42;24.80;30.30
18126;DHT22;53956;52.442;13.284;2023-06-04T13:34:09;24.80;31.10
18126;DHT22;53956;52.442;13.284;2023-06-04T13:36:36;24.80;29.30
18126;DHT22;53956;52.442;13.284;2023-06-04T13:39:04;24.80;30.90
18126;DHT22;53956;52.442;13.284;2023-06-04T13:41:31;24.70;29.30
18126;DHT22;53956;52.442;13.284;2023-06-04T13:43:58;24.90;31.20
18126;DHT22;53956;52.442;13.284;2023-06-04T13:46:24;24.70;29.90
18126;DHT22;53956;52.442;13.284;2023-06-04T13:48:52;24.30;29.30
18126;DHT22;53956;52.442;13.284;2023-06-04T13:51:19;24.30;29.30
18126;DHT22;53956;52.442;13.284;2023-06-04T13:53:45;24.50;29.60
18126;DHT22;53956;52.442;13.284;2023-06-04T13:56:12;24.40;29.30
18126;DHT22;53956;52.442;13.284;2023-06-04T13:58:39;24.30;30.90
18126;DHT22;53956;52.442;13.284;2023-06-04T14:01:05;24.30;29.00
18126;DHT22;53956;52.442;13.284;2023-06-04T14:03:32;24.20;29.70
18126;DHT22;53956;52.442;13.284;2023-06-04T14:06:00;24.20;30.20
18126;DHT22;53956;52.442;13.284;2023-06-04T14:08:27;24.30;29.50
18126;DHT22;53956;52.442;13.284;2023-06-04T14:10:54;24.30;29.90
18126;DHT22;53956;52.442;13.284;2023-06-04T14:13:21;24.30;30.00
18126;DHT22;53956;52.442;13.284;2023-06-04T14:15:48;24.40;30.00
18126;DHT22;53956;52.442;13.284;2023-06-04T14:18:16;24.50;29.50
18126;DHT22;53956;52.442;13.284;2023-06-04T14:20:43;24.50;31.10
18126;DHT22;53956;52.442;13.284;2023-06-04T14:23:11;24.50;30.00
18126;DHT22;53956;52.442;13.284;2023-06-04T14:25:38;24.60;30.00
18126;DHT22;53956;52.442;13.284;2023-06-04T14:28:05;24.60;30.30
18126;DHT22;53956;52.442;13.284;2023-06-04T14:30:31;24.60;30.50
18126;DHT22;53956;52.442;13.284;2023-06-04T14:32:58;24.60;29.90
18126;DHT22;53956;52.442;13.284;2023-06-04T14:35:25;24.70;31.30
18126;DHT22;53956;52.442;13.284;2023-06-04T14:37:51;24.60;30.40
18126;DHT22;53956;52.442;13.284;2023-06-04T14:40:19;24.70;30.60
18126;DHT22;53956;52.442;13.284;2023-06-04T14:42:46;24.70;30.20
18126;DHT22;53956;52.442;13.284;2023-06-04T14:45:12;24.60;30.10
18126;DHT22;53956;52.442;13.284;2023-06-04T14:47:39;24.80;31.30
18126;DHT22;53956;52.442;13.284;2023-06-04T14:50:06;24.90;30.60
18126;DHT22;53956;52.442;13.284;2023-06-04T14:52:33;24.80;30.30
18126;DHT22;53956;52.442;13.284;2023-06-04T14:54:59;25.00;30.50
18126;DHT22;53956;52.442;13.284;2023-06-04T14:57:27;25.10;31.30
18126;DHT22;53956;52.442;13.284;2023-06-04T14:59:54;25.10;31.50
18126;DHT22;53956;52.442;13.284;2023-06-04T15:02:20;25.30;31.60
18126;DHT22;53956;52.442;13.284;2023-06-04T15:04:47;25.10;31.10
18126;DHT22;53956;52.442;13.284;2023-06-04T15:07:14;25.20;30.00
18126;DHT22;53956;52.442;13.284;2023-06-04T15:09:41;25.10;31.20
18126;DHT22;53956;52.442;13.284;2023-06-04T15:12:07;25.00;30.40
18126;DHT22;53956;52.442;13.284;2023-06-04T15:14:35;25.10;31.40
18126;DHT22;53956;52.442;13.284;2023-06-04T15:17:02;25.10;30.40
18126;DHT22;53956;52.442;13.284;2023-06-04T15:19:29;25.10;29.20